sensor_id;sensor_type;location;lat;lon;timestamp;temperature;humidity
52159;DHT22;38145;53.182;6.284;2023-04-19T00:00:39;8.40;99.90
52159;DHT22;38145;53.182;6.284;2023-04-19T00:03:05;8.40;99.90
52159;DHT22;38145;53.182;6.284;2023-04-19T00:05:31;8.40;99.90
52159;DHT22;38145;53.182;6.284;2023-04-19T00:07:58;8.30;99.90
52159;DHT22;38145;53.182;6.284;2023-04-19T00:10:25;8.30;99.90
52159;DHT22;38145;53.182;6.284;2023-04-19T00:12:51;8.30;99.90
52159;DHT22;38145;53.182;6.284;2023-04-19T00:15:18;8.30;99.90
52159;DHT22;38145;53.182;6.284;2023-04-19T00:17:44;8.30;99.90
52159;DHT22;38145;53.182;6.284;2023-04-19T00:20:10;8.30;99.90
52159;DHT22;38145;53.182;6.284;2023-04-19T00:22:38;8.30;99.90
52159;DHT22;38145;53.182;6.284;2023-04-19T00:25:04;8.20;99.90
52159;DHT22;38145;53.182;6.284;2023-04-19T00:27:31;8.20;99.90
52159;DHT22;38145;53.182;6.284;2023-04-19T00:29:57;8.20;99.90
52159;DHT22;38145;53.182;6.284;2023-04-19T00:32:23;8.20;99.90
52159;DHT22;38145;53.182;6.284;2023-04-19T00:34:50;8.20;99.90
52159;DHT22;38145;53.182;6.284;2023-04-19T00:37:16;8.10;99.90
52159;DHT22;38145;53.182;6.284;2023-04-19T00:39:42;8.10;99.90
52159;DHT22;38145;53.182;6.284;2023-04-19T00:42:08;8.20;99.90
52159;DHT22;38145;53.182;6.284;2023-04-19T00:44:35;8.10;99.90
52159;DHT22;38145;53.182;6.284;2023-04-19T00:47:01;8.10;99.90
52159;DHT22;38145;53.182;6.284;2023-04-19T00:49:27;8.10;99.90
52159;DHT22;38145;53.182;6.284;2023-04-19T00:51:55;8.10;99.90
52159;DHT22;38145;53.182;6.284;2023-04-19T00:54:22;8.10;99.90
52159;DHT22;38145;53.182;6.284;2023-04-19T00:56:48;8.10;99.90
52159;DHT22;38145;53.182;6.284;2023-04-19T00:59:15;8.10;99.90
52159;DHT22;38145;53.182;6.284;2023-04-19T01:01:41;8.00;99.90
52159;DHT22;38145;53.182;6.284;2023-04-19T01:04:08;8.00;99.90
52159;DHT22;38145;53.182;6.284;2023-04-19T01:06:35;8.00;99.90
52159;DHT22;38145;53.182;6.284;2023-04-19T01:09:01;8.00;99.90
52159;DHT22;38145;53.182;6.284;2023-04-19T01:11:27;8.00;99.90
52159;DHT22;38145;53.182;6.284;2023-04-19T01:13:54;8.00;99.90
52159;DHT22;38145;53.182;6.284;2023-04-19T01:16:21;8.00;99.90
52159;DHT22;38145;53.182;6.284;2023-04-19T01:18:47;7.90;99.90
52159;DHT22;38145;53.182;6.284;2023-04-19T01:21:13;7.90;99.90
52159;DHT22;38145;53.182;6.284;2023-04-19T01:23:40;8.00;99.90
52159;DHT22;38145;53.182;6.284;2023-04-19T01:26:06;7.90;99.90
52159;DHT22;38145;53.182;6.284;2023-04-19T01:28:32;7.90;99.90
52159;DHT22;38145;53.182;6.284;2023-04-19T01:31:01;7.80;99.90
52159;DHT22;38145;53.182;6.284;2023-04-19T01:33:27;7.70;99.90
52159;DHT22;38145;53.182;6.284;2023-04-19T01:35:53;7.70;99.90
52159;DHT22;38145;53.182;6.284;2023-04-19T01:38:19;7.50;99.90
52159;DHT22;38145;53.182;6.284;2023-04-19T01:40:45;7.50;99.90
52159;DHT22;38145;53.182;6.284;2023-04-19T01:43:13;7.40;99.90
52159;DHT22;38145;53.182;6.284;2023-04-19T01:45:40;7.30;99.90
52159;DHT22;38145;53.182;6.284;2023-04-19T01:48:06;7.30;99.90
52159;DHT22;38145;53.182;6.284;2023-04-19T01:50:32;7.20;99.90
52159;DHT22;38145;53.182;6.284;2023-04-19T01:52:59;7.20;99.90
52159;DHT22;38145;53.182;6.284;2023-04-19T01:55:25;7.10;99.90
52159;DHT22;38145;53.182;6.284;2023-04-19T01:57:51;7.10;99.90
52159;DHT22;38145;53.182;6.284;2023-04-19T02:00:19;7.10;99.90
52159;DHT22;38145;53.182;6.284;2023-04-19T02:02:46;7.00;99.90
52159;DHT22;38145;53.182;6.284;2023-04-19T02:05:12;7.00;99.90
52159;DHT22;38145;53.182;6.284;2023-04-19T02:07:39;7.00;99.90
52159;DHT22;38145;53.182;6.284;2023-04-19T02:10:08;6.90;99.90
52159;DHT22;38145;53.182;6.284;2023-04-19T02:12:34;6.90;99.90
52159;DHT22;38145;53.182;6.284;2023-04-19T02:15:00;6.90;99.90
52159;DHT22;38145;53.182;6.284;2023-04-19T02:17:27;6.80;99.90
52159;DHT22;38145;53.182;6.284;2023-04-19T02:19:53;6.90;99.90
52159;DHT22;38145;53.182;6.284;2023-04-19T02:22:20;6.80;99.90
52159;DHT22;38145;53.182;6.284;2023-04-19T02:24:49;6.80;99.90
52159;DHT22;38145;53.182;6.284;2023-04-19T02:27:15;6.70;99.90
52159;DHT22;38145;53.182;6.284;2023-04-19T02:29:42;6.70;99.90
52159;DHT22;38145;53.182;6.284;2023-04-19T02:32:11;6.70;99.90
52159;DHT22;38145;53.182;6.284;2023-04-19T02:34:37;6.70;99.90
52159;DHT22;38145;53.182;6.284;2023-04-19T02:37:04;6.70;99.90
52159;DHT22;38145;53.182;6.284;2023-04-19T02:39:30;6.60;99.90
52159;DHT22;38145;53.182;6.284;2023-04-19T02:41:56;6.70;99.90
52159;DHT22;38145;53.182;6.284;2023-04-19T02:44:22;6.60;99.90
52159;DHT22;38145;53.182;6.284;2023-04-19T02:46:49;6.60;99.90
52159;DHT22;38145;53.182;6.284;2023-04-19T02:49:16;6.60;99.90
52159;DHT22;38145;53.182;6.284;2023-04-19T02:51:44;6.60;99.90
52159;DHT22;38145;53.182;6.284;2023-04-19T02:54:10;6.60;99.90
52159;DHT22;38145;53.182;6.284;2023-04-19T02:56:37;6.50;99.90
52159;DHT22;38145;53.182;6.284;2023-04-19T02:59:03;6.50;99.90
52159;DHT22;38145;53.182;6.284;2023-04-19T03:01:30;6.60;99.90
52159;DHT22;38145;53.182;6.284;2023-04-19T03:03:56;6.50;99.90
52159;DHT22;38145;53.182;6.284;2023-04-19T03:06:22;6.60;99.90
52159;DHT22;38145;53.182;6.284;2023-04-19T03:08:48;6.50;99.90
52159;DHT22;38145;53.182;6.284;2023-04-19T03:11:16;6.50;99.90
52159;DHT22;38145;53.182;6.284;2023-04-19T03:13:43;6.50;99.90
52159;DHT22;38145;53.182;6.284;2023-04-19T03:16:09;6.50;99.90
52159;DHT22;38145;53.182;6.284;2023-04-19T03:18:35;6.50;99.90
52159;DHT22;38145;53.182;6.284;2023-04-19T03:21:03;6.60;99.90
52159;DHT22;38145;53.182;6.284;2023-04-19T03:23:29;6.50;99.90
52159;DHT22;38145;53.182;6.284;2023-04-19T03:25:55;6.50;99.90
52159;DHT22;38145;53.182;6.284;2023-04-19T03:28:22;6.50;99.90
52159;DHT22;38145;53.182;6.284;2023-04-19T03:30:48;6.50;99.90
52159;DHT22;38145;53.182;6.284;2023-04-19T03:33:13;6.50;99.90
52159;DHT22;38145;53.182;6.284;2023-04-19T03:35:39;6.40;99.90
52159;DHT22;38145;53.182;6.284;2023-04-19T03:38:05;6.40;99.90
52159;DHT22;38145;53.182;6.284;2023-04-19T03:40:32;6.40;99.90
52159;DHT22;38145;53.182;6.284;2023-04-19T03:42:58;6.40;99.90
52159;DHT22;38145;53.182;6.284;2023-04-19T03:45:25;6.40;99.90
52159;DHT22;38145;53.182;6.284;2023-04-19T03:47:51;6.30;99.90
52159;DHT22;38145;53.182;6.284;2023-04-19T03:50:17;6.30;99.90
52159;DHT22;38145;53.182;6.284;2023-04-19T03:52:44;6.10;99.90
52159;DHT22;38145;53.182;6.284;2023-04-19T03:55:10;6.00;99.90
52159;DHT22;38145;53.182;6.284;2023-04-19T03:57:37;5.80;99.90
52159;DHT22;38145;53.182;6.284;2023-04-19T04:00:04;5.70;99.90
52159;DHT22;38145;53.182;6.284;2023-04-19T04:02:36;5.60;99.90
52159;DHT22;38145;53.182;6.284;2023-04-19T04:05:03;5.60;99.90
52159;DHT22;38145;53.182;6.284;2023-04-19T04:07:29;5.50;99.90
52159;DHT22;38145;53.182;6.284;2023-04-19T04:09:55;5.50;99.90
52159;DHT22;38145;53.182;6.284;2023-04-19T04:12:21;5.40;99.90
52159;DHT22;38145;53.182;6.284;2023-04-19T04:14:48;5.40;99.90
52159;DHT22;38145;53.182;6.284;2023-04-19T04:17:14;5.40;99.90
52159;DHT22;38145;53.182;6.284;2023-04-19T04:19:40;5.30;99.90
52159;DHT22;38145;53.182;6.284;2023-04-19T04:22:06;5.30;99.90
52159;DHT22;38145;53.182;6.284;2023-04-19T04:24:38;5.20;99.90
52159;DHT22;38145;53.182;6.284;2023-04-19T04:27:07;5.20;99.90
52159;DHT22;38145;53.182;6.284;2023-04-19T04:29:35;5.20;99.90
52159;DHT22;38145;53.182;6.284;2023-04-19T04:32:04;5.20;99.90
52159;DHT22;38145;53.182;6.284;2023-04-19T04:34:30;5.20;99.90
52159;DHT22;38145;53.182;6.284;2023-04-19T04:36:57;5.20;99.90
52159;DHT22;38145;53.182;6.284;2023-04-19T04:39:24;5.20;99.90
52159;DHT22;38145;53.182;6.284;2023-04-19T04:41:50;5.20;99.90
52159;DHT22;38145;53.182;6.284;2023-04-19T04:44:18;5.20;99.90
52159;DHT22;38145;53.182;6.284;2023-04-19T04:46:45;5.20;99.90
52159;DHT22;38145;53.182;6.284;2023-04-19T04:49:11;5.10;99.90
52159;DHT22;38145;53.182;6.284;2023-04-19T04:51:37;5.10;99.90
52159;DHT22;38145;53.182;6.284;2023-04-19T04:54:04;5.10;99.90
52159;DHT22;38145;53.182;6.284;2023-04-19T04:56:30;5.10;99.90
52159;DHT22;38145;53.182;6.284;2023-04-19T04:58:57;5.10;99.90
52159;DHT22;38145;53.182;6.284;2023-04-19T05:01:24;5.10;99.90
52159;DHT22;38145;53.182;6.284;2023-04-19T05:03:50;5.10;99.90
52159;DHT22;38145;53.182;6.284;2023-04-19T05:06:16;5.10;99.90
52159;DHT22;38145;53.182;6.284;2023-04-19T05:08:43;5.10;99.90
52159;DHT22;38145;53.182;6.284;2023-04-19T05:11:10;5.10;99.90
52159;DHT22;38145;53.182;6.284;2023-04-19T05:13:36;5.20;99.90
52159;DHT22;38145;53.182;6.284;2023-04-19T05:16:02;5.20;99.90
52159;DHT22;38145;53.182;6.284;2023-04-19T05:18:28;5.20;99.90
52159;DHT22;38145;53.182;6.284;2023-04-19T05:20:56;5.20;99.90
52159;DHT22;38145;53.182;6.284;2023-04-19T05:23:22;5.30;99.90
52159;DHT22;38145;53.182;6.284;2023-04-19T05:25:48;5.30;99.90
52159;DHT22;38145;53.182;6.284;2023-04-19T05:28:15;5.40;99.90
52159;DHT22;38145;53.182;6.284;2023-04-19T05:30:41;5.40;99.90
52159;DHT22;38145;53.182;6.284;2023-04-19T05:33:08;5.40;99.90
52159;DHT22;38145;53.182;6.284;2023-04-19T05:35:34;5.50;99.90
52159;DHT22;38145;53.182;6.284;2023-04-19T05:38:00;5.50;99.90
52159;DHT22;38145;53.182;6.284;2023-04-19T05:40:26;5.60;99.90
52159;DHT22;38145;53.182;6.284;2023-04-19T05:42:53;5.60;99.90
52159;DHT22;38145;53.182;6.284;2023-04-19T05:45:20;5.70;99.90
52159;DHT22;38145;53.182;6.284;2023-04-19T05:47:46;5.70;99.90
52159;DHT22;38145;53.182;6.284;2023-04-19T05:50:12;5.80;99.90
52159;DHT22;38145;53.182;6.284;2023-04-19T05:52:42;6.00;99.90
52159;DHT22;38145;53.182;6.284;2023-04-19T05:55:08;6.00;99.90
52159;DHT22;38145;53.182;6.284;2023-04-19T05:57:34;6.00;99.90
52159;DHT22;38145;53.182;6.284;2023-04-19T06:00:01;6.10;99.90
52159;DHT22;38145;53.182;6.284;2023-04-19T06:02:27;6.30;99.90
52159;DHT22;38145;53.182;6.284;2023-04-19T06:04:53;6.40;99.90
52159;DHT22;38145;53.182;6.284;2023-04-19T06:07:19;6.50;99.90
52159;DHT22;38145;53.182;6.284;2023-04-19T06:09:45;6.70;99.90
52159;DHT22;38145;53.182;6.284;2023-04-19T06:12:12;6.90;99.90
52159;DHT22;38145;53.182;6.284;2023-04-19T06:14:38;7.20;99.90
52159;DHT22;38145;53.182;6.284;2023-04-19T06:17:04;7.40;99.90
52159;DHT22;38145;53.182;6.284;2023-04-19T06:19:32;7.70;99.90
52159;DHT22;38145;53.182;6.284;2023-04-19T06:21:59;7.80;99.90
52159;DHT22;38145;53.182;6.284;2023-04-19T06:24:26;7.90;99.90
52159;DHT22;38145;53.182;6.284;2023-04-19T06:26:52;7.90;99.90
52159;DHT22;38145;53.182;6.284;2023-04-19T06:29:19;8.00;99.90
52159;DHT22;38145;53.182;6.284;2023-04-19T06:31:46;8.10;99.90
52159;DHT22;38145;53.182;6.284;2023-04-19T06:34:12;8.20;99.90
52159;DHT22;38145;53.182;6.284;2023-04-19T06:36:38;8.30;99.90
52159;DHT22;38145;53.182;6.284;2023-04-19T06:39:04;8.30;99.90
52159;DHT22;38145;53.182;6.284;2023-04-19T06:41:30;8.40;99.90
52159;DHT22;38145;53.182;6.284;2023-04-19T06:43:57;8.60;99.90
52159;DHT22;38145;53.182;6.284;2023-04-19T06:46:23;8.80;99.90
52159;DHT22;38145;53.182;6.284;2023-04-19T06:48:49;8.90;99.90
52159;DHT22;38145;53.182;6.284;2023-04-19T06:51:15;9.00;99.90
52159;DHT22;38145;53.182;6.284;2023-04-19T06:53:41;9.10;99.90
52159;DHT22;38145;53.182;6.284;2023-04-19T06:56:10;9.20;99.90
52159;DHT22;38145;53.182;6.284;2023-04-19T06:58:37;9.30;99.90
52159;DHT22;38145;53.182;6.284;2023-04-19T07:01:07;9.40;99.90
52159;DHT22;38145;53.182;6.284;2023-04-19T07:03:33;9.50;99.90
52159;DHT22;38145;53.182;6.284;2023-04-19T07:05:59;9.60;99.90
52159;DHT22;38145;53.182;6.284;2023-04-19T07:08:26;9.60;99.90
52159;DHT22;38145;53.182;6.284;2023-04-19T07:10:52;9.80;99.90
52159;DHT22;38145;53.182;6.284;2023-04-19T07:13:18;9.90;99.90
52159;DHT22;38145;53.182;6.284;2023-04-19T07:15:44;9.90;99.90
52159;DHT22;38145;53.182;6.284;2023-04-19T07:18:13;9.90;99.90
52159;DHT22;38145;53.182;6.284;2023-04-19T07:20:40;10.00;99.90
52159;DHT22;38145;53.182;6.284;2023-04-19T07:23:11;10.20;99.90
52159;DHT22;38145;53.182;6.284;2023-04-19T07:25:37;10.40;99.90
52159;DHT22;38145;53.182;6.284;2023-04-19T07:28:03;10.60;99.90
52159;DHT22;38145;53.182;6.284;2023-04-19T07:30:32;10.80;99.90
52159;DHT22;38145;53.182;6.284;2023-04-19T07:32:58;11.00;99.90
52159;DHT22;38145;53.182;6.284;2023-04-19T07:35:24;11.30;99.90
52159;DHT22;38145;53.182;6.284;2023-04-19T07:37:50;11.60;99.90
52159;DHT22;38145;53.182;6.284;2023-04-19T07:40:16;11.70;99.90
52159;DHT22;38145;53.182;6.284;2023-04-19T07:42:42;11.80;99.90
52159;DHT22;38145;53.182;6.284;2023-04-19T07:45:09;12.00;99.90
52159;DHT22;38145;53.182;6.284;2023-04-19T07:47:35;12.10;99.90
52159;DHT22;38145;53.182;6.284;2023-04-19T07:50:01;12.10;99.90
52159;DHT22;38145;53.182;6.284;2023-04-19T07:52:28;12.10;99.90
52159;DHT22;38145;53.182;6.284;2023-04-19T07:54:54;12.00;99.90
52159;DHT22;38145;53.182;6.284;2023-04-19T07:57:20;12.00;99.90
52159;DHT22;38145;53.182;6.284;2023-04-19T07:59:46;12.10;99.90
52159;DHT22;38145;53.182;6.284;2023-04-19T08:02:12;12.30;99.90
52159;DHT22;38145;53.182;6.284;2023-04-19T08:04:38;12.40;99.90
52159;DHT22;38145;53.182;6.284;2023-04-19T08:07:04;12.40;99.90
52159;DHT22;38145;53.182;6.284;2023-04-19T08:09:32;12.40;99.90
52159;DHT22;38145;53.182;6.284;2023-04-19T08:11:58;12.40;99.90
52159;DHT22;38145;53.182;6.284;2023-04-19T08:14:26;12.50;99.90
52159;DHT22;38145;53.182;6.284;2023-04-19T08:16:52;12.70;99.90
52159;DHT22;38145;53.182;6.284;2023-04-19T08:19:18;12.90;99.90
52159;DHT22;38145;53.182;6.284;2023-04-19T08:21:44;12.90;99.90
52159;DHT22;38145;53.182;6.284;2023-04-19T08:24:10;12.90;99.90
52159;DHT22;38145;53.182;6.284;2023-04-19T08:26:36;12.90;99.90
52159;DHT22;38145;53.182;6.284;2023-04-19T08:29:04;13.00;99.90
52159;DHT22;38145;53.182;6.284;2023-04-19T08:31:29;13.20;99.90
52159;DHT22;38145;53.182;6.284;2023-04-19T08:33:55;13.40;99.90
52159;DHT22;38145;53.182;6.284;2023-04-19T08:36:24;13.80;99.90
52159;DHT22;38145;53.182;6.284;2023-04-19T08:38:51;14.00;99.90
52159;DHT22;38145;53.182;6.284;2023-04-19T08:41:18;14.60;99.90
52159;DHT22;38145;53.182;6.284;2023-04-19T08:43:44;14.80;99.90
52159;DHT22;38145;53.182;6.284;2023-04-19T08:46:12;14.90;99.90
52159;DHT22;38145;53.182;6.284;2023-04-19T08:48:39;15.10;99.90
52159;DHT22;38145;53.182;6.284;2023-04-19T08:51:05;15.10;99.90
52159;DHT22;38145;53.182;6.284;2023-04-19T08:53:33;15.00;99.90
52159;DHT22;38145;53.182;6.284;2023-04-19T08:56:01;15.20;99.90
52159;DHT22;38145;53.182;6.284;2023-04-19T08:58:27;15.30;99.90
52159;DHT22;38145;53.182;6.284;2023-04-19T09:00:57;15.30;99.90
52159;DHT22;38145;53.182;6.284;2023-04-19T09:03:23;15.30;99.90
52159;DHT22;38145;53.182;6.284;2023-04-19T09:05:49;15.30;99.90
52159;DHT22;38145;53.182;6.284;2023-04-19T09:08:25;15.50;99.90
52159;DHT22;38145;53.182;6.284;2023-04-19T09:10:54;15.70;99.90
52159;DHT22;38145;53.182;6.284;2023-04-19T09:13:20;15.60;99.90
52159;DHT22;38145;53.182;6.284;2023-04-19T09:15:46;15.60;99.90
52159;DHT22;38145;53.182;6.284;2023-04-19T09:18:12;15.40;99.90
52159;DHT22;38145;53.182;6.284;2023-04-19T09:20:41;15.40;99.90
52159;DHT22;38145;53.182;6.284;2023-04-19T09:23:10;15.30;99.90
52159;DHT22;38145;53.182;6.284;2023-04-19T09:25:38;15.40;99.90
52159;DHT22;38145;53.182;6.284;2023-04-19T09:28:11;15.40;99.90
52159;DHT22;38145;53.182;6.284;2023-04-19T09:30:38;15.20;99.90
52159;DHT22;38145;53.182;6.284;2023-04-19T09:33:04;15.20;99.90
52159;DHT22;38145;53.182;6.284;2023-04-19T09:35:40;15.10;99.90
52159;DHT22;38145;53.182;6.284;2023-04-19T09:38:06;15.20;99.90
52159;DHT22;38145;53.182;6.284;2023-04-19T09:40:32;15.30;99.90
52159;DHT22;38145;53.182;6.284;2023-04-19T09:42:58;15.40;99.90
52159;DHT22;38145;53.182;6.284;2023-04-19T09:45:26;15.50;99.90
52159;DHT22;38145;53.182;6.284;2023-04-19T09:48:02;15.50;99.90
52159;DHT22;38145;53.182;6.284;2023-04-19T09:50:28;15.50;99.90
52159;DHT22;38145;53.182;6.284;2023-04-19T09:52:54;15.50;99.90
52159;DHT22;38145;53.182;6.284;2023-04-19T09:55:21;15.60;99.90
52159;DHT22;38145;53.182;6.284;2023-04-19T09:57:48;15.60;99.90
52159;DHT22;38145;53.182;6.284;2023-04-19T10:00:14;15.40;99.90
52159;DHT22;38145;53.182;6.284;2023-04-19T10:02:41;15.50;99.90
52159;DHT22;38145;53.182;6.284;2023-04-19T10:05:09;15.60;99.90
52159;DHT22;38145;53.182;6.284;2023-04-19T10:07:35;15.60;99.90
52159;DHT22;38145;53.182;6.284;2023-04-19T10:10:02;15.50;99.90
52159;DHT22;38145;53.182;6.284;2023-04-19T10:12:29;15.50;99.90
52159;DHT22;38145;53.182;6.284;2023-04-19T10:14:56;15.80;99.90
52159;DHT22;38145;53.182;6.284;2023-04-19T10:17:22;15.70;99.90
52159;DHT22;38145;53.182;6.284;2023-04-19T10:19:58;15.60;99.90
52159;DHT22;38145;53.182;6.284;2023-04-19T10:22:26;15.50;99.90
52159;DHT22;38145;53.182;6.284;2023-04-19T10:25:14;15.50;99.90
52159;DHT22;38145;53.182;6.284;2023-04-19T10:27:42;15.50;99.90
52159;DHT22;38145;53.182;6.284;2023-04-19T10:30:19;15.40;99.90
52159;DHT22;38145;53.182;6.284;2023-04-19T10:32:52;15.50;99.90
52159;DHT22;38145;53.182;6.284;2023-04-19T10:35:22;15.40;99.90
52159;DHT22;38145;53.182;6.284;2023-04-19T10:43:15;15.50;99.90
52159;DHT22;38145;53.182;6.284;2023-04-19T10:45:42;15.50;99.90
52159;DHT22;38145;53.182;6.284;2023-04-19T10:53:43;15.70;99.90
52159;DHT22;38145;53.182;6.284;2023-04-19T10:56:09;15.70;99.90
52159;DHT22;38145;53.182;6.284;2023-04-19T11:01:36;15.70;99.90
52159;DHT22;38145;53.182;6.284;2023-04-19T11:04:05;15.70;99.90
52159;DHT22;38145;53.182;6.284;2023-04-19T11:06:33;15.70;99.90
52159;DHT22;38145;53.182;6.284;2023-04-19T11:08:59;15.90;99.90
52159;DHT22;38145;53.182;6.284;2023-04-19T11:11:27;15.80;99.90
52159;DHT22;38145;53.182;6.284;2023-04-19T11:13:55;15.80;99.90
52159;DHT22;38145;53.182;6.284;2023-04-19T11:16:22;15.70;99.90
52159;DHT22;38145;53.182;6.284;2023-04-19T11:18:48;15.60;99.90
52159;DHT22;38145;53.182;6.284;2023-04-19T11:21:17;15.60;99.90
52159;DHT22;38145;53.182;6.284;2023-04-19T11:23:43;15.60;99.90
52159;DHT22;38145;53.182;6.284;2023-04-19T11:26:11;15.60;99.90
52159;DHT22;38145;53.182;6.284;2023-04-19T11:28:38;15.60;99.90
52159;DHT22;38145;53.182;6.284;2023-04-19T11:31:06;15.60;99.90
52159;DHT22;38145;53.182;6.284;2023-04-19T11:33:33;15.60;99.90
52159;DHT22;38145;53.182;6.284;2023-04-19T11:35:59;15.60;99.90
52159;DHT22;38145;53.182;6.284;2023-04-19T11:38:27;15.70;99.90
52159;DHT22;38145;53.182;6.284;2023-04-19T11:41:00;15.50;99.90
52159;DHT22;38145;53.182;6.284;2023-04-19T11:43:34;15.60;99.90
52159;DHT22;38145;53.182;6.284;2023-04-19T11:46:08;15.80;99.90
52159;DHT22;38145;53.182;6.284;2023-04-19T11:48:35;15.20;99.90
52159;DHT22;38145;53.182;6.284;2023-04-19T11:51:02;15.10;99.90
52159;DHT22;38145;53.182;6.284;2023-04-19T11:53:30;14.90;99.90
52159;DHT22;38145;53.182;6.284;2023-04-19T11:56:03;14.90;99.90
52159;DHT22;38145;53.182;6.284;2023-04-19T11:58:30;15.00;99.90
52159;DHT22;38145;53.182;6.284;2023-04-19T12:01:08;14.90;99.90
52159;DHT22;38145;53.182;6.284;2023-04-19T12:03:40;15.10;99.90
52159;DHT22;38145;53.182;6.284;2023-04-19T12:06:10;15.20;99.90
52159;DHT22;38145;53.182;6.284;2023-04-19T12:08:40;15.20;99.90
52159;DHT22;38145;53.182;6.284;2023-04-19T12:11:07;15.10;99.90
52159;DHT22;38145;53.182;6.284;2023-04-19T12:13:33;15.10;99.90
52159;DHT22;38145;53.182;6.284;2023-04-19T12:16:00;15.10;99.90
52159;DHT22;38145;53.182;6.284;2023-04-19T12:18:26;15.30;99.90
52159;DHT22;38145;53.182;6.284;2023-04-19T12:20:52;15.30;99.90
52159;DHT22;38145;53.182;6.284;2023-04-19T12:23:20;15.10;99.90
52159;DHT22;38145;53.182;6.284;2023-04-19T12:25:47;14.90;99.90
52159;DHT22;38145;53.182;6.284;2023-04-19T12:28:14;14.90;99.90
52159;DHT22;38145;53.182;6.284;2023-04-19T12:30:40;14.80;99.90
52159;DHT22;38145;53.182;6.284;2023-04-19T12:33:07;14.90;99.90
52159;DHT22;38145;53.182;6.284;2023-04-19T12:35:33;14.60;99.90
52159;DHT22;38145;53.182;6.284;2023-04-19T12:38:00;14.50;99.90
52159;DHT22;38145;53.182;6.284;2023-04-19T12:40:29;14.60;99.90
52159;DHT22;38145;53.182;6.284;2023-04-19T12:42:55;14.50;99.90
52159;DHT22;38145;53.182;6.284;2023-04-19T12:45:20;14.80;99.90
52159;DHT22;38145;53.182;6.284;2023-04-19T12:47:47;14.90;99.90
52159;DHT22;38145;53.182;6.284;2023-04-19T12:50:14;14.90;99.90
52159;DHT22;38145;53.182;6.284;2023-04-19T12:52:41;14.60;99.90
52159;DHT22;38145;53.182;6.284;2023-04-19T12:55:08;14.30;99.90
52159;DHT22;38145;53.182;6.284;2023-04-19T12:57:34;14.20;99.90
52159;DHT22;38145;53.182;6.284;2023-04-19T12:59:59;14.50;99.90
52159;DHT22;38145;53.182;6.284;2023-04-19T13:02:26;14.50;99.90
52159;DHT22;38145;53.182;6.284;2023-04-19T13:04:51;14.60;99.90
52159;DHT22;38145;53.182;6.284;2023-04-19T13:07:17;14.70;99.90
52159;DHT22;38145;53.182;6.284;2023-04-19T13:09:43;14.50;99.90
52159;DHT22;38145;53.182;6.284;2023-04-19T13:12:09;14.30;99.90
52159;DHT22;38145;53.182;6.284;2023-04-19T13:14:35;14.20;99.90
52159;DHT22;38145;53.182;6.284;2023-04-19T13:17:01;14.20;99.90
52159;DHT22;38145;53.182;6.284;2023-04-19T13:19:27;14.20;99.90
52159;DHT22;38145;53.182;6.284;2023-04-19T13:21:52;14.30;99.90
52159;DHT22;38145;53.182;6.284;2023-04-19T13:24:18;14.20;99.90
52159;DHT22;38145;53.182;6.284;2023-04-19T13:26:44;14.20;99.90
52159;DHT22;38145;53.182;6.284;2023-04-19T13:29:11;14.00;99.90
52159;DHT22;38145;53.182;6.284;2023-04-19T13:31:37;14.20;99.90
52159;DHT22;38145;53.182;6.284;2023-04-19T13:34:03;14.20;99.90
52159;DHT22;38145;53.182;6.284;2023-04-19T13:36:29;14.10;99.90
52159;DHT22;38145;53.182;6.284;2023-04-19T13:38:56;14.10;99.90
52159;DHT22;38145;53.182;6.284;2023-04-19T13:41:22;14.00;99.90
52159;DHT22;38145;53.182;6.284;2023-04-19T13:43:48;13.90;99.90
52159;DHT22;38145;53.182;6.284;2023-04-19T13:46:14;13.70;99.90
52159;DHT22;38145;53.182;6.284;2023-04-19T13:48:40;13.60;99.90
52159;DHT22;38145;53.182;6.284;2023-04-19T13:51:06;13.70;99.90
52159;DHT22;38145;53.182;6.284;2023-04-19T13:53:32;13.60;99.90
52159;DHT22;38145;53.182;6.284;2023-04-19T13:55:58;13.70;99.90
52159;DHT22;38145;53.182;6.284;2023-04-19T13:58:24;13.70;99.90
52159;DHT22;38145;53.182;6.284;2023-04-19T14:00:51;13.60;99.90
52159;DHT22;38145;53.182;6.284;2023-04-19T14:03:17;13.70;99.90
52159;DHT22;38145;53.182;6.284;2023-04-19T14:05:43;13.70;99.90
52159;DHT22;38145;53.182;6.284;2023-04-19T14:08:09;13.60;99.90
52159;DHT22;38145;53.182;6.284;2023-04-19T14:10:35;13.60;99.90
52159;DHT22;38145;53.182;6.284;2023-04-19T14:13:01;13.60;99.90
52159;DHT22;38145;53.182;6.284;2023-04-19T14:15:28;13.60;99.90
52159;DHT22;38145;53.182;6.284;2023-04-19T14:17:54;13.40;99.90
52159;DHT22;38145;53.182;6.284;2023-04-19T14:20:20;13.40;99.90
52159;DHT22;38145;53.182;6.284;2023-04-19T14:22:46;13.30;99.90
52159;DHT22;38145;53.182;6.284;2023-04-19T14:25:12;13.40;99.90
52159;DHT22;38145;53.182;6.284;2023-04-19T14:27:40;13.40;99.90
52159;DHT22;38145;53.182;6.284;2023-04-19T14:30:06;13.40;99.90
52159;DHT22;38145;53.182;6.284;2023-04-19T14:32:33;13.40;99.90
52159;DHT22;38145;53.182;6.284;2023-04-19T14:34:59;13.30;99.90
52159;DHT22;38145;53.182;6.284;2023-04-19T14:37:26;13.30;99.90
52159;DHT22;38145;53.182;6.284;2023-04-19T14:39:52;13.10;99.90
52159;DHT22;38145;53.182;6.284;2023-04-19T14:42:19;13.20;99.90
52159;DHT22;38145;53.182;6.284;2023-04-19T14:44:45;13.30;99.90
52159;DHT22;38145;53.182;6.284;2023-04-19T14:47:12;13.30;99.90
52159;DHT22;38145;53.182;6.284;2023-04-19T14:49:40;13.40;99.90
52159;DHT22;38145;53.182;6.284;2023-04-19T14:52:06;13.30;99.90
52159;DHT22;38145;53.182;6.284;2023-04-19T14:54:33;13.20;99.90
52159;DHT22;38145;53.182;6.284;2023-04-19T14:56:59;13.30;99.90
52159;DHT22;38145;53.182;6.284;2023-04-19T14:59:26;13.20;99.90
52159;DHT22;38145;53.182;6.284;2023-04-19T15:01:52;13.00;99.90
52159;DHT22;38145;53.182;6.284;2023-04-19T15:04:19;13.00;99.90
52159;DHT22;38145;53.182;6.284;2023-04-19T15:06:46;13.10;99.90
52159;DHT22;38145;53.182;6.284;2023-04-19T15:09:12;13.10;99.90
52159;DHT22;38145;53.182;6.284;2023-04-19T15:11:38;12.90;99.90
52159;DHT22;38145;53.182;6.284;2023-04-19T15:14:05;13.00;99.90
52159;DHT22;38145;53.182;6.284;2023-04-19T15:16:31;12.80;99.90
52159;DHT22;38145;53.182;6.284;2023-04-19T15:18:57;12.80;99.90
52159;DHT22;38145;53.182;6.284;2023-04-19T15:21:23;12.80;99.90
52159;DHT22;38145;53.182;6.284;2023-04-19T15:23:50;12.80;99.90
52159;DHT22;38145;53.182;6.284;2023-04-19T15:26:16;12.80;99.90
52159;DHT22;38145;53.182;6.284;2023-04-19T15:28:41;12.70;99.90
52159;DHT22;38145;53.182;6.284;2023-04-19T15:31:07;12.70;99.90
52159;DHT22;38145;53.182;6.284;2023-04-19T15:33:35;12.70;99.90
52159;DHT22;38145;53.182;6.284;2023-04-19T15:36:01;12.90;99.90
52159;DHT22;38145;53.182;6.284;2023-04-19T15:38:29;12.80;99.90
52159;DHT22;38145;53.182;6.284;2023-04-19T15:40:56;12.70;99.90
52159;DHT22;38145;53.182;6.284;2023-04-19T15:43:23;12.70;99.90
52159;DHT22;38145;53.182;6.284;2023-04-19T15:45:50;12.70;99.90
52159;DHT22;38145;53.182;6.284;2023-04-19T15:48:16;12.70;99.90